createdAt,value
2022-07-29T00:01:53.963Z,16.30
2022-07-29T00:04:21.464Z,16.40
2022-07-29T00:06:48.343Z,16.40
2022-07-29T00:09:15.095Z,16.50
2022-07-29T00:11:41.718Z,16.50
2022-07-29T00:14:08.561Z,16.60
2022-07-29T00:16:35.579Z,16.60
2022-07-29T00:19:02.630Z,16.70
2022-07-29T00:21:29.424Z,16.70
2022-07-29T00:23:56.106Z,16.60
2022-07-29T00:26:22.805Z,16.50
2022-07-29T00:28:49.439Z,16.40
2022-07-29T00:31:16.295Z,16.30
2022-07-29T00:33:43.014Z,16.10
2022-07-29T00:36:09.640Z,16.20
2022-07-29T00:38:36.460Z,16.20
2022-07-29T00:41:03.106Z,16.30
2022-07-29T00:43:29.749Z,16.30
2022-07-29T00:45:56.539Z,16.40
2022-07-29T00:48:23.284Z,16.40
2022-07-29T00:50:51.000Z,16.40
2022-07-29T00:53:17.891Z,16.50
2022-07-29T00:55:44.595Z,16.50
2022-07-29T00:58:13.756Z,16.50
2022-07-29T01:00:41.803Z,16.40
2022-07-29T01:03:09.532Z,16.50
2022-07-29T01:05:50.458Z,16.60
2022-07-29T01:08:19.472Z,16.60
2022-07-29T01:10:48.130Z,16.60
2022-07-29T01:13:15.918Z,16.40
2022-07-29T01:15:50.363Z,16.10
2022-07-29T01:18:33.130Z,16.10
2022-07-29T01:21:06.758Z,16.00
2022-07-29T01:24:21.733Z,16.10
2022-07-29T01:26:58.623Z,16.20
2022-07-29T01:29:36.052Z,16.20
2022-07-29T01:32:27.694Z,16.30
2022-07-29T01:35:27.984Z,16.40
2022-07-29T01:38:06.301Z,16.40
2022-07-29T01:40:40.375Z,16.40
2022-07-29T01:43:28.451Z,16.40
2022-07-29T01:46:02.164Z,16.30
2022-07-29T01:48:36.607Z,16.30
2022-07-29T01:51:08.493Z,16.30
2022-07-29T01:53:56.314Z,16.30
2022-07-29T01:56:25.404Z,16.00
2022-07-29T01:58:54.548Z,15.90
2022-07-29T02:01:25.128Z,15.90
2022-07-29T02:03:53.990Z,15.90
2022-07-29T02:06:22.956Z,16.00
2022-07-29T02:08:52.079Z,15.80
2022-07-29T02:11:18.872Z,15.80
2022-07-29T02:13:46.848Z,15.80
2022-07-29T02:16:14.287Z,15.70
2022-07-29T02:18:46.021Z,15.60
2022-07-29T02:21:15.153Z,15.60
2022-07-29T02:23:50.288Z,15.60
2022-07-29T02:26:20.100Z,15.50
2022-07-29T02:28:48.206Z,15.40
2022-07-29T02:31:15.632Z,15.50
2022-07-29T02:33:43.766Z,15.40
2022-07-29T02:36:11.529Z,15.40
2022-07-29T02:38:52.009Z,15.30
2022-07-29T02:41:24.246Z,15.20
2022-07-29T02:43:56.629Z,15.10
2022-07-29T02:46:31.587Z,15.10
2022-07-29T02:49:37.412Z,15.00
2022-07-29T02:52:18.169Z,14.70
2022-07-29T02:55:17.732Z,14.70
2022-07-29T02:57:54.850Z,14.60
2022-07-29T03:00:24.609Z,14.60
2022-07-29T03:02:54.592Z,14.50
2022-07-29T03:05:23.462Z,14.50
2022-07-29T03:07:57.840Z,14.30
2022-07-29T03:10:26.742Z,14.30
2022-07-29T03:12:55.010Z,14.20
2022-07-29T03:15:22.672Z,14.30
2022-07-29T03:17:52.503Z,14.20
2022-07-29T03:20:19.504Z,14.20
2022-07-29T03:22:48.923Z,14.30
2022-07-29T03:25:20.318Z,14.20
2022-07-29T03:27:48.498Z,14.20
2022-07-29T03:30:20.367Z,14.20
2022-07-29T03:32:49.059Z,14.10
2022-07-29T03:35:17.488Z,14.00
2022-07-29T03:37:45.083Z,13.90
2022-07-29T03:40:15.572Z,13.80
2022-07-29T03:42:44.580Z,13.70
2022-07-29T03:45:15.068Z,13.80
2022-07-29T03:47:51.053Z,13.80
2022-07-29T03:50:21.096Z,13.70
2022-07-29T03:52:48.859Z,13.70
2022-07-29T03:55:16.873Z,13.60
2022-07-29T03:57:50.257Z,13.70
2022-07-29T04:00:17.512Z,13.60
2022-07-29T04:02:49.136Z,13.50
2022-07-29T04:05:16.858Z,13.50
2022-07-29T04:07:47.225Z,13.60
2022-07-29T04:10:16.474Z,13.60
2022-07-29T04:12:49.569Z,13.70
2022-07-29T04:15:16.663Z,13.60
2022-07-29T04:17:43.890Z,13.60
2022-07-29T04:20:14.114Z,13.60
2022-07-29T04:22:43.764Z,13.70
2022-07-29T04:25:10.661Z,13.80
2022-07-29T04:27:57.272Z,13.80
2022-07-29T04:30:27.545Z,13.90
2022-07-29T04:32:54.345Z,14.00
2022-07-29T04:35:21.214Z,14.10
2022-07-29T04:37:48.117Z,14.20
2022-07-29T04:40:15.132Z,14.20
2022-07-29T04:42:46.903Z,14.30
2022-07-29T04:45:14.893Z,14.30
2022-07-29T04:47:43.083Z,14.40
2022-07-29T04:50:10.881Z,14.40
2022-07-29T04:52:37.675Z,14.30
2022-07-29T04:55:05.511Z,14.20
2022-07-29T04:57:32.227Z,14.30
2022-07-29T04:59:58.991Z,14.30
2022-07-29T05:02:25.657Z,14.40
2022-07-29T05:04:52.376Z,14.40
2022-07-29T05:07:19.096Z,14.50
2022-07-29T05:09:45.740Z,14.60
2022-07-29T05:12:12.869Z,14.70
2022-07-29T05:14:40.601Z,14.60
2022-07-29T05:17:07.315Z,14.70
2022-07-29T05:19:34.001Z,14.80
2022-07-29T05:22:06.483Z,14.70
2022-07-29T05:24:33.104Z,14.70
2022-07-29T05:26:59.754Z,14.90
2022-07-29T05:29:43.641Z,15.10
2022-07-29T05:32:11.985Z,15.20
2022-07-29T05:34:38.631Z,15.20
2022-07-29T05:37:19.416Z,15.40
2022-07-29T05:39:47.500Z,15.80
2022-07-29T05:42:16.982Z,16.70
2022-07-29T05:44:44.676Z,17.30
2022-07-29T05:47:12.583Z,17.90
2022-07-29T05:49:39.487Z,18.50
2022-07-29T05:52:06.332Z,18.90
2022-07-29T05:54:33.069Z,19.20
2022-07-29T05:56:59.690Z,18.60
2022-07-29T05:59:30.274Z,18.30
2022-07-29T06:01:58.230Z,17.90
2022-07-29T06:04:25.219Z,18.00
2022-07-29T06:06:52.037Z,18.20
2022-07-29T06:09:18.799Z,18.30
2022-07-29T06:11:45.549Z,18.30
2022-07-29T06:14:12.311Z,18.40
2022-07-29T06:16:39.169Z,18.60
2022-07-29T06:19:05.898Z,18.50
2022-07-29T06:21:32.593Z,18.30
2022-07-29T06:23:59.269Z,18.10
2022-07-29T06:26:30.355Z,18.40
2022-07-29T06:28:58.211Z,18.60
2022-07-29T06:31:24.998Z,18.80
2022-07-29T06:33:51.724Z,19.00
2022-07-29T06:36:21.730Z,19.10
2022-07-29T06:38:51.238Z,19.30
2022-07-29T06:41:18.969Z,19.30
2022-07-29T06:43:52.509Z,19.40
2022-07-29T06:46:22.978Z,19.60
2022-07-29T06:48:53.559Z,19.70
2022-07-29T06:51:23.054Z,19.80
2022-07-29T06:53:59.850Z,20.00
2022-07-29T06:56:38.625Z,20.10
2022-07-29T06:59:07.531Z,19.80
2022-07-29T07:01:34.341Z,19.80
2022-07-29T07:04:05.795Z,19.80
2022-07-29T07:06:33.263Z,19.60
2022-07-29T07:08:59.925Z,20.10
2022-07-29T07:11:26.743Z,20.40
2022-07-29T07:13:53.448Z,20.60
2022-07-29T07:16:20.104Z,20.90
2022-07-29T07:18:46.799Z,20.80
2022-07-29T07:21:19.326Z,20.90
2022-07-29T07:23:46.704Z,21.50
2022-07-29T07:26:13.371Z,21.80
2022-07-29T07:28:39.983Z,22.10
2022-07-29T07:31:06.823Z,22.40
2022-07-29T07:33:33.456Z,23.10
2022-07-29T07:36:00.147Z,23.50
2022-07-29T07:38:26.804Z,24.30
2022-07-29T07:40:53.469Z,24.40
2022-07-29T07:43:20.163Z,24.90
2022-07-29T07:45:46.888Z,25.20
2022-07-29T07:48:13.577Z,24.70
2022-07-29T07:50:40.311Z,24.70
2022-07-29T07:53:07.052Z,24.80
2022-07-29T07:56:00.005Z,24.90
2022-07-29T07:58:20.376Z,24.80
2022-07-29T08:00:47.997Z,25.00
2022-07-29T08:03:17.142Z,25.10
2022-07-29T08:05:44.582Z,25.20
2022-07-29T08:08:11.242Z,25.10
2022-07-29T08:10:53.200Z,25.10
2022-07-29T08:13:26.334Z,25.30
2022-07-29T08:15:58.773Z,25.80
2022-07-29T08:18:27.053Z,26.50
2022-07-29T08:20:53.740Z,27.00
2022-07-29T08:23:20.663Z,27.60
2022-07-29T08:25:47.481Z,28.60
2022-07-29T08:28:17.663Z,28.70
2022-07-29T08:30:44.516Z,28.70
2022-07-29T08:33:11.171Z,29.20
2022-07-29T08:35:39.772Z,29.80
2022-07-29T08:38:06.438Z,30.50
2022-07-29T08:40:33.169Z,30.80
2022-07-29T08:43:08.402Z,30.70
2022-07-29T08:45:47.650Z,31.20
2022-07-29T08:48:17.579Z,31.20
2022-07-29T08:50:46.478Z,31.50
2022-07-29T08:53:16.204Z,31.90
2022-07-29T08:55:45.225Z,32.00
2022-07-29T08:58:15.745Z,32.00
2022-07-29T09:00:50.436Z,32.50
2022-07-29T09:03:20.735Z,33.10
2022-07-29T09:05:48.553Z,33.50
2022-07-29T09:08:16.600Z,34.30
2022-07-29T09:10:43.868Z,34.30
2022-07-29T09:13:10.720Z,34.30
2022-07-29T09:15:37.370Z,33.70
2022-07-29T09:18:04.102Z,33.30
2022-07-29T09:20:50.726Z,32.60
2022-07-29T09:23:23.114Z,32.40
2022-07-29T09:25:51.620Z,32.50
2022-07-29T09:28:19.161Z,33.10
2022-07-29T09:31:02.624Z,33.40
2022-07-29T09:33:41.323Z,33.90
2022-07-29T09:36:09.736Z,33.60
2022-07-29T09:38:37.626Z,33.30
2022-07-29T09:41:06.733Z,33.50
2022-07-29T09:43:34.285Z,33.40
2022-07-29T09:46:14.535Z,33.70
2022-07-29T09:48:41.327Z,33.60
2022-07-29T09:51:21.272Z,33.90
2022-07-29T09:53:51.260Z,34.60
2022-07-29T09:56:19.734Z,34.90
2022-07-29T09:58:46.388Z,35.00
2022-07-29T10:01:13.584Z,34.80
2022-07-29T10:03:55.573Z,34.90
2022-07-29T10:06:22.238Z,35.30
2022-07-29T10:08:50.612Z,35.70
2022-07-29T10:11:18.726Z,36.30
2022-07-29T10:13:48.341Z,36.20
2022-07-29T10:16:16.594Z,36.00
2022-07-29T10:18:44.909Z,35.50
2022-07-29T10:21:22.612Z,34.50
2022-07-29T10:24:01.183Z,33.60
2022-07-29T10:26:29.108Z,33.30
2022-07-29T10:28:56.715Z,33.70
2022-07-29T10:31:35.153Z,33.90
2022-07-29T10:34:27.649Z,34.50
2022-07-29T10:37:21.539Z,34.60
2022-07-29T10:40:38.143Z,34.40
2022-07-29T10:43:25.135Z,33.60
2022-07-29T10:45:57.989Z,33.30
2022-07-29T10:48:25.237Z,32.60
2022-07-29T10:51:08.529Z,33.20
2022-07-29T10:53:52.364Z,34.40
2022-07-29T10:56:27.398Z,35.10
2022-07-29T10:59:19.128Z,35.50
2022-07-29T11:01:56.672Z,35.50
2022-07-29T11:05:04.544Z,35.40
2022-07-29T11:07:45.755Z,35.40
2022-07-29T11:10:13.882Z,35.80
2022-07-29T11:12:44.000Z,36.20
2022-07-29T11:15:19.675Z,37.00
2022-07-29T11:17:55.427Z,37.00
2022-07-29T11:20:50.970Z,36.40
2022-07-29T11:23:33.388Z,34.30
2022-07-29T11:26:23.094Z,33.20
2022-07-29T11:29:02.571Z,32.40
2022-07-29T11:31:39.666Z,31.90
2022-07-29T11:34:23.298Z,31.70
2022-07-29T11:37:15.999Z,31.50
2022-07-29T11:39:48.819Z,31.20
2022-07-29T11:45:42.174Z,31.40
2022-07-29T11:50:53.271Z,34.20
2022-07-29T11:53:20.414Z,35.20
2022-07-29T11:55:55.334Z,35.40
2022-07-29T11:58:26.148Z,35.30
2022-07-29T12:00:55.213Z,35.20
2022-07-29T12:03:34.895Z,35.20
2022-07-29T12:06:02.649Z,35.60
2022-07-29T12:07:01.819Z,31.20
2022-07-29T12:08:30.495Z,36.30
2022-07-29T12:10:57.183Z,36.60
2022-07-29T12:13:37.051Z,36.50
2022-07-29T12:16:05.438Z,36.00
2022-07-29T12:18:32.528Z,35.30
2022-07-29T12:21:03.085Z,35.20
2022-07-29T12:23:34.965Z,34.60
2022-07-29T12:26:07.423Z,34.50
2022-07-29T12:28:40.531Z,34.90
2022-07-29T12:31:13.744Z,34.10
2022-07-29T12:33:40.607Z,33.70
2022-07-29T12:36:12.799Z,33.30
2022-07-29T12:38:44.177Z,33.60
2022-07-29T12:41:11.511Z,33.90
2022-07-29T12:43:38.228Z,33.70
2022-07-29T12:46:16.020Z,32.80
2022-07-29T12:48:44.001Z,31.90
2022-07-29T12:51:12.721Z,31.60
2022-07-29T12:53:40.059Z,31.80
2022-07-29T12:56:40.538Z,32.20
2022-07-29T12:59:16.290Z,32.50
2022-07-29T13:01:43.157Z,32.30
2022-07-29T13:04:09.896Z,32.50
2022-07-29T13:06:50.952Z,32.20
2022-07-29T13:09:24.669Z,31.80
2022-07-29T13:11:53.250Z,31.80
2022-07-29T13:14:58.548Z,32.00
2022-07-29T13:17:25.796Z,31.80
2022-07-29T13:19:54.622Z,31.70
2022-07-29T13:22:25.579Z,31.70
2022-07-29T13:24:57.387Z,31.90
2022-07-29T13:27:33.124Z,32.30
2022-07-29T13:30:02.373Z,32.40
2022-07-29T13:32:30.711Z,32.50
2022-07-29T13:34:58.291Z,32.30
2022-07-29T13:37:25.276Z,32.00
2022-07-29T13:39:53.075Z,31.80
2022-07-29T13:42:20.257Z,31.50
2022-07-29T13:44:46.931Z,31.50
2022-07-29T13:47:13.859Z,31.40
2022-07-29T13:49:40.512Z,31.00
2022-07-29T13:52:08.401Z,30.80
2022-07-29T13:54:41.969Z,30.70
2022-07-29T13:57:09.835Z,30.70
2022-07-29T13:59:36.469Z,30.50
2022-07-29T14:02:03.852Z,30.30
2022-07-29T14:04:30.572Z,29.90
2022-07-29T14:06:57.233Z,30.00
2022-07-29T14:09:24.035Z,29.80
2022-07-29T14:11:52.228Z,29.70
2022-07-29T14:14:19.230Z,29.70
2022-07-29T14:16:50.444Z,29.50
2022-07-29T14:19:18.896Z,29.50
2022-07-29T14:21:46.359Z,29.70
2022-07-29T14:24:18.028Z,30.00
2022-07-29T14:26:48.727Z,30.10
2022-07-29T14:29:15.788Z,30.00
2022-07-29T14:31:44.073Z,29.70
2022-07-29T14:34:10.820Z,29.70
2022-07-29T14:36:37.518Z,29.60
2022-07-29T14:39:04.923Z,29.20
2022-07-29T14:41:31.580Z,28.80
2022-07-29T14:44:01.427Z,28.60
2022-07-29T14:46:29.109Z,28.40
2022-07-29T14:48:55.996Z,28.60
2022-07-29T14:51:22.666Z,28.70
2022-07-29T14:53:49.301Z,28.70
2022-07-29T14:56:36.069Z,28.70
2022-07-29T14:59:02.629Z,28.90
2022-07-29T15:01:30.051Z,29.10
2022-07-29T15:03:59.789Z,29.00
2022-07-29T15:06:27.356Z,28.90
2022-07-29T15:08:54.084Z,28.60
2022-07-29T15:11:20.745Z,28.60
2022-07-29T15:13:47.407Z,28.40
2022-07-29T15:16:14.090Z,28.20
2022-07-29T15:18:40.887Z,28.40
2022-07-29T15:21:08.361Z,28.50
2022-07-29T15:23:38.555Z,28.30
2022-07-29T15:26:05.728Z,28.10
2022-07-29T15:28:32.371Z,28.00
2022-07-29T15:30:59.307Z,28.00
2022-07-29T15:33:26.749Z,27.80
2022-07-29T15:35:53.421Z,27.80
2022-07-29T15:38:20.420Z,27.70
2022-07-29T15:40:55.589Z,27.50
2022-07-29T15:43:22.441Z,27.50
2022-07-29T15:46:07.746Z,27.40
2022-07-29T15:48:37.248Z,27.30
2022-07-29T15:51:04.025Z,27.40
2022-07-29T15:53:30.675Z,27.40
2022-07-29T15:55:57.468Z,27.40
2022-07-29T15:58:24.133Z,27.40
2022-07-29T16:00:50.992Z,27.30
2022-07-29T16:03:17.852Z,27.40
2022-07-29T16:05:44.585Z,27.50
2022-07-29T16:08:11.312Z,27.40
2022-07-29T16:10:38.121Z,27.20
2022-07-29T16:13:04.734Z,27.10
2022-07-29T16:15:31.354Z,26.90
2022-07-29T16:17:58.042Z,26.70
2022-07-29T16:20:24.927Z,26.60
2022-07-29T16:22:51.551Z,26.30
2022-07-29T16:25:18.246Z,26.40
2022-07-29T16:27:44.872Z,26.20
2022-07-29T16:30:11.932Z,26.30
2022-07-29T16:32:39.696Z,26.10
2022-07-29T16:35:09.958Z,26.10
2022-07-29T16:37:37.225Z,26.00
2022-07-29T16:40:06.217Z,25.90
2022-07-29T16:42:46.215Z,26.00
2022-07-29T16:45:13.922Z,25.70
2022-07-29T16:47:40.586Z,25.60
2022-07-29T16:50:07.880Z,25.60
2022-07-29T16:52:34.608Z,25.70
2022-07-29T16:55:01.294Z,25.80
2022-07-29T16:57:27.932Z,25.80
2022-07-29T16:59:54.613Z,25.80
2022-07-29T17:02:21.347Z,25.70
2022-07-29T17:04:48.293Z,25.60
2022-07-29T17:07:16.025Z,25.60
2022-07-29T17:09:43.039Z,25.60
2022-07-29T17:12:09.805Z,25.50
2022-07-29T17:14:36.770Z,25.20
2022-07-29T17:17:04.369Z,25.00
2022-07-29T17:19:40.278Z,24.90
2022-07-29T17:22:14.324Z,24.80
2022-07-29T17:24:43.054Z,24.60
2022-07-29T17:27:10.953Z,24.60
2022-07-29T17:29:38.789Z,24.60
2022-07-29T17:32:07.653Z,24.70
2022-07-29T17:34:36.139Z,24.70
2022-07-29T17:37:03.623Z,24.60
2022-07-29T17:39:30.247Z,24.40
2022-07-29T17:41:57.030Z,24.30
2022-07-29T17:44:23.667Z,24.10
2022-07-29T17:46:50.378Z,24.10
2022-07-29T17:49:18.557Z,24.00
2022-07-29T17:51:45.267Z,24.10
2022-07-29T17:54:12.066Z,24.00
2022-07-29T17:56:38.731Z,24.10
2022-07-29T17:59:10.021Z,24.00
2022-07-29T18:01:38.050Z,24.00
2022-07-29T18:04:04.834Z,23.80
2022-07-29T18:06:31.490Z,23.80
2022-07-29T18:08:59.662Z,23.80
2022-07-29T18:11:26.319Z,23.80
2022-07-29T18:13:52.961Z,23.70
2022-07-29T18:16:19.807Z,23.70
2022-07-29T18:18:46.572Z,23.70
2022-07-29T18:21:13.498Z,23.80
2022-07-29T18:23:40.229Z,23.80
2022-07-29T18:26:06.859Z,23.90
2022-07-29T18:28:33.522Z,23.80
2022-07-29T18:31:01.144Z,24.00
2022-07-29T18:33:27.908Z,23.90
2022-07-29T18:36:10.090Z,23.90
2022-07-29T18:38:39.456Z,23.80
2022-07-29T18:41:06.083Z,23.70
2022-07-29T18:43:32.785Z,23.70
2022-07-29T18:45:59.536Z,23.60
2022-07-29T18:48:26.175Z,23.50
2022-07-29T18:50:52.816Z,23.30
2022-07-29T18:53:19.443Z,23.10
2022-07-29T18:55:46.182Z,23.00
2022-07-29T18:58:12.806Z,22.80
2022-07-29T19:00:39.422Z,22.70
2022-07-29T19:03:06.208Z,22.60
2022-07-29T19:05:33.121Z,22.60
2022-07-29T19:07:59.844Z,22.50
2022-07-29T19:10:26.901Z,22.40
2022-07-29T19:12:54.344Z,22.40
2022-07-29T19:15:21.007Z,22.30
2022-07-29T19:17:48.570Z,22.30
2022-07-29T19:20:15.810Z,22.20
2022-07-29T19:22:42.525Z,22.10
2022-07-29T19:25:09.892Z,21.90
2022-07-29T19:27:36.590Z,21.70
2022-07-29T19:30:06.043Z,21.50
2022-07-29T19:32:32.912Z,21.40
2022-07-29T19:35:18.229Z,21.30
2022-07-29T19:37:44.887Z,21.30
2022-07-29T19:40:12.566Z,21.10
2022-07-29T19:42:39.375Z,21.00
2022-07-29T19:45:06.546Z,20.80
2022-07-29T19:47:33.205Z,20.70
2022-07-29T19:50:00.631Z,20.60
2022-07-29T19:52:28.026Z,20.40
2022-07-29T19:54:54.716Z,20.20
2022-07-29T19:57:21.447Z,20.10
2022-07-29T19:59:48.248Z,19.80
2022-07-29T20:02:16.502Z,19.60
2022-07-29T20:04:43.315Z,19.40
2022-07-29T20:07:09.938Z,19.30
2022-07-29T20:09:36.685Z,19.10
2022-07-29T20:12:04.713Z,19.00
2022-07-29T20:14:31.364Z,19.00
2022-07-29T20:16:58.444Z,19.00
2022-07-29T20:19:25.434Z,19.00
2022-07-29T20:21:52.145Z,19.10
2022-07-29T20:24:20.380Z,19.00
2022-07-29T20:26:48.185Z,19.00
2022-07-29T20:29:14.921Z,19.00
2022-07-29T20:31:43.205Z,18.90
2022-07-29T20:34:10.248Z,18.90
2022-07-29T20:36:36.955Z,19.00
2022-07-29T20:39:04.035Z,19.00
2022-07-29T20:41:30.677Z,19.00
2022-07-29T20:43:57.377Z,18.90
2022-07-29T20:46:24.118Z,18.80
2022-07-29T20:48:50.802Z,18.80
2022-07-29T20:51:17.546Z,18.70
2022-07-29T20:53:44.175Z,18.70
2022-07-29T20:56:12.360Z,18.60
2022-07-29T20:58:40.658Z,18.50
2022-07-29T21:01:08.016Z,18.30
2022-07-29T21:03:36.318Z,18.30
2022-07-29T21:06:03.279Z,18.30
2022-07-29T21:08:30.080Z,18.20
2022-07-29T21:10:57.336Z,18.20
2022-07-29T21:13:25.478Z,18.10
2022-07-29T21:15:55.626Z,18.10
2022-07-29T21:18:32.834Z,17.90
2022-07-29T21:21:04.537Z,17.80
2022-07-29T21:23:31.475Z,17.80
2022-07-29T21:25:58.196Z,17.80
2022-07-29T21:28:28.763Z,17.80
2022-07-29T21:31:01.631Z,17.70
2022-07-29T21:33:30.954Z,17.60
2022-07-29T21:38:44.295Z,17.40
2022-07-29T21:41:12.499Z,17.40
2022-07-29T21:43:41.722Z,17.30
2022-07-29T21:46:09.313Z,17.20
2022-07-29T21:48:36.197Z,17.20
2022-07-29T21:51:02.945Z,17.10
2022-07-29T21:53:30.617Z,17.10
2022-07-29T21:55:57.628Z,17.10
2022-07-29T21:58:24.643Z,17.00
2022-07-29T22:00:52.412Z,16.90
2022-07-29T22:03:19.076Z,16.80
2022-07-29T22:05:45.901Z,16.70
2022-07-29T22:08:13.401Z,16.60
2022-07-29T22:10:40.022Z,16.70
2022-07-29T22:13:06.658Z,16.70
2022-07-29T22:15:33.473Z,16.60
2022-07-29T22:18:00.226Z,16.60
2022-07-29T22:20:27.434Z,16.60
2022-07-29T22:22:54.207Z,16.70
2022-07-29T22:25:21.562Z,16.70
2022-07-29T22:27:48.909Z,16.70
2022-07-29T22:30:16.543Z,16.70
2022-07-29T22:32:43.376Z,16.80
2022-07-29T22:35:10.339Z,16.80
2022-07-29T22:37:37.000Z,16.80
2022-07-29T22:40:04.810Z,16.70
2022-07-29T22:42:31.585Z,16.70
2022-07-29T22:44:58.250Z,16.80
2022-07-29T22:47:45.869Z,16.80
2022-07-29T22:50:11.590Z,16.80
2022-07-29T22:52:38.249Z,16.80
2022-07-29T22:55:05.489Z,16.90
2022-07-29T22:57:32.398Z,17.00
2022-07-29T23:00:01.611Z,17.00
2022-07-29T23:02:28.788Z,17.00
2022-07-29T23:04:55.474Z,17.00
2022-07-29T23:07:22.494Z,17.00
2022-07-29T23:09:49.136Z,16.90
2022-07-29T23:12:15.767Z,16.60
2022-07-29T23:14:42.394Z,16.50
2022-07-29T23:17:09.218Z,16.50
2022-07-29T23:19:36.146Z,16.50
2022-07-29T23:22:02.831Z,16.40
2022-07-29T23:24:29.522Z,16.40
2022-07-29T23:26:56.160Z,16.50
2022-07-29T23:29:22.924Z,16.70
2022-07-29T23:31:49.571Z,16.90
2022-07-29T23:34:16.359Z,16.80
2022-07-29T23:36:43.095Z,16.70
2022-07-29T23:39:13.299Z,16.70
2022-07-29T23:41:40.191Z,16.80
2022-07-29T23:44:07.234Z,16.90
2022-07-29T23:46:34.150Z,16.90
2022-07-29T23:49:01.031Z,17.00
2022-07-29T23:51:29.284Z,16.90
2022-07-29T23:53:56.574Z,16.90
2022-07-29T23:56:23.395Z,16.80
2022-07-29T23:58:50.123Z,16.60
